createdAt,value
2019-06-07T00:00:38.205Z,99.90
2019-06-07T00:03:00.114Z,99.90
2019-06-07T00:05:30.911Z,99.90
2019-06-07T00:08:07.624Z,99.90
2019-06-07T00:10:37.053Z,99.90
2019-06-07T00:13:07.251Z,99.90
2019-06-07T00:15:38.084Z,99.90
2019-06-07T00:18:12.260Z,99.90
2019-06-07T00:20:41.539Z,99.90
2019-06-07T00:23:14.930Z,99.90
2019-06-07T00:25:44.824Z,99.90
2019-06-07T00:28:17.293Z,99.90
2019-06-07T00:30:52.207Z,99.90
2019-06-07T00:33:24.109Z,99.90
2019-06-07T00:35:52.860Z,99.90
2019-06-07T00:38:23.642Z,99.90
2019-06-07T00:40:54.509Z,99.90
2019-06-07T00:43:28.224Z,99.90
2019-06-07T00:45:58.029Z,99.90
2019-06-07T00:48:32.773Z,99.90
2019-06-07T00:51:01.668Z,99.90
2019-06-07T00:53:32.790Z,99.90
2019-06-07T00:56:03.868Z,99.90
2019-06-07T00:58:34.843Z,99.90
2019-06-07T01:01:05.943Z,99.90
2019-06-07T01:03:36.829Z,99.90
2019-06-07T01:06:07.713Z,99.90
2019-06-07T01:08:38.518Z,99.90
2019-06-07T01:11:09.379Z,99.90
2019-06-07T01:13:40.449Z,99.90
2019-06-07T01:16:11.334Z,99.90
2019-06-07T01:18:46.543Z,99.90
2019-06-07T01:21:15.820Z,99.90
2019-06-07T01:24:08.910Z,99.90
2019-06-07T01:26:21.938Z,99.90
2019-06-07T01:28:52.048Z,99.90
2019-06-07T01:31:25.335Z,99.90
2019-06-07T01:33:55.449Z,99.90
2019-06-07T01:36:29.483Z,99.90
2019-06-07T01:39:00.628Z,99.90
2019-06-07T01:41:31.551Z,99.90
2019-06-07T01:44:02.346Z,99.90
2019-06-07T01:46:33.320Z,99.90
2019-06-07T01:49:04.149Z,99.90
2019-06-07T01:51:35.578Z,99.90
2019-06-07T01:54:49.564Z,99.90
2019-06-07T01:56:38.928Z,99.90
2019-06-07T01:59:09.838Z,99.90
2019-06-07T02:01:40.829Z,99.90
2019-06-07T02:04:11.688Z,99.90
2019-06-07T02:06:42.498Z,99.90
2019-06-07T02:09:13.284Z,99.90
2019-06-07T02:11:44.149Z,99.90
2019-06-07T02:14:14.985Z,99.90
2019-06-07T02:16:45.895Z,99.90
2019-06-07T02:19:16.783Z,99.90
2019-06-07T02:21:47.614Z,99.90
2019-06-07T02:24:18.508Z,99.90
2019-06-07T02:26:49.350Z,99.90
2019-06-07T02:29:20.493Z,99.90
2019-06-07T02:31:51.490Z,99.90
2019-06-07T02:34:24.107Z,99.90
2019-06-07T02:36:54.637Z,99.90
2019-06-07T02:39:28.207Z,99.90
2019-06-07T02:41:57.994Z,99.90
2019-06-07T02:44:34.922Z,99.90
2019-06-07T02:47:01.185Z,99.90
2019-06-07T02:49:39.660Z,99.90
2019-06-07T02:52:04.751Z,99.90
2019-06-07T02:54:39.615Z,99.90
2019-06-07T02:57:07.998Z,99.90
2019-06-07T03:00:04.457Z,99.90
2019-06-07T03:02:11.794Z,99.90
2019-06-07T03:04:44.879Z,99.90
2019-06-07T03:07:15.893Z,99.90
2019-06-07T03:09:47.510Z,99.90
2019-06-07T03:12:20.708Z,99.90
2019-06-07T03:14:53.568Z,99.90
2019-06-07T03:17:56.033Z,99.90
2019-06-07T03:20:29.546Z,99.90
2019-06-07T03:23:02.990Z,99.90
2019-06-07T03:25:39.211Z,99.90
2019-06-07T03:28:10.178Z,99.90
2019-06-07T03:30:58.151Z,99.90
2019-06-07T03:33:13.540Z,99.90
2019-06-07T03:35:44.519Z,99.90
2019-06-07T03:38:15.344Z,99.90
2019-06-07T03:40:46.293Z,99.90
2019-06-07T03:43:17.209Z,99.90
2019-06-07T03:45:47.918Z,99.90
2019-06-07T03:48:18.951Z,99.90
2019-06-07T03:51:03.867Z,99.90
2019-06-07T03:53:22.309Z,99.90
2019-06-07T03:55:53.197Z,99.90
2019-06-07T03:58:34.667Z,99.90
2019-06-07T04:00:58.723Z,99.90
2019-06-07T04:03:36.193Z,99.90
2019-06-07T04:06:01.689Z,99.90
2019-06-07T04:08:34.427Z,99.90
2019-06-07T04:11:05.519Z,99.90
2019-06-07T04:13:41.508Z,99.90
2019-06-07T04:16:09.379Z,99.90
2019-06-07T04:18:41.967Z,99.90
2019-06-07T04:21:13.083Z,99.90
2019-06-07T04:23:45.640Z,99.90
2019-06-07T04:26:16.445Z,99.90
2019-06-07T04:29:31.745Z,99.90
2019-06-07T04:31:19.885Z,99.90
2019-06-07T04:33:51.169Z,99.90
2019-06-07T04:36:39.217Z,99.90
2019-06-07T04:38:56.998Z,99.90
2019-06-07T04:41:30.919Z,99.90
2019-06-07T04:44:03.389Z,99.90
2019-06-07T04:46:38.973Z,99.90
2019-06-07T04:49:06.970Z,99.90
2019-06-07T04:51:42.095Z,99.90
2019-06-07T04:54:10.789Z,99.90
2019-06-07T04:56:44.448Z,99.90
2019-06-07T04:59:59.774Z,99.90
2019-06-07T05:01:47.164Z,99.90
2019-06-07T05:04:18.173Z,99.90
2019-06-07T05:06:49.069Z,99.90
2019-06-07T05:09:20.034Z,99.90
2019-06-07T05:11:50.839Z,99.90
2019-06-07T05:14:21.745Z,99.90
2019-06-07T05:16:52.524Z,99.90
2019-06-07T05:19:23.356Z,99.90
2019-06-07T05:22:04.145Z,99.90
2019-06-07T05:24:27.120Z,99.90
2019-06-07T05:26:58.020Z,99.90
2019-06-07T05:29:30.783Z,99.90
2019-06-07T05:32:02.003Z,99.90
2019-06-07T05:34:34.582Z,99.90
2019-06-07T05:37:11.810Z,99.90
2019-06-07T05:39:41.995Z,99.90
2019-06-07T05:42:10.480Z,99.90
2019-06-07T05:44:45.162Z,99.90
2019-06-07T05:47:13.924Z,99.90
2019-06-07T05:49:47.164Z,99.90
2019-06-07T05:52:17.578Z,99.90
2019-06-07T05:54:48.490Z,99.90
2019-06-07T05:57:19.520Z,99.90
2019-06-07T05:59:50.658Z,99.90
2019-06-07T06:02:24.563Z,99.90
2019-06-07T06:04:53.934Z,99.90
2019-06-07T06:07:25.034Z,99.90
2019-06-07T06:09:55.895Z,99.90
2019-06-07T06:12:35.201Z,99.90
2019-06-07T06:14:59.240Z,99.90
2019-06-07T06:17:30.091Z,99.90
2019-06-07T06:20:01.014Z,99.90
2019-06-07T06:22:31.989Z,99.90
2019-06-07T06:25:30.988Z,99.90
2019-06-07T06:28:05.971Z,99.90
2019-06-07T06:30:09.683Z,99.90
2019-06-07T06:32:46.741Z,99.90
2019-06-07T06:35:13.100Z,99.90
2019-06-07T06:37:48.846Z,99.90
2019-06-07T06:40:17.030Z,99.90
2019-06-07T06:42:49.031Z,99.90
2019-06-07T06:45:20.966Z,99.90
2019-06-07T06:47:51.856Z,99.90
2019-06-07T06:50:23.219Z,99.90
2019-06-07T06:52:54.855Z,99.90
2019-06-07T06:55:27.105Z,99.90
2019-06-07T06:57:57.908Z,99.90
2019-06-07T07:01:01.959Z,99.90
2019-06-07T07:03:54.199Z,99.90
2019-06-07T07:05:55.134Z,99.90
2019-06-07T07:08:26.343Z,99.90
2019-06-07T07:10:57.428Z,99.90
2019-06-07T07:13:28.288Z,99.90
2019-06-07T07:15:59.323Z,99.90
2019-06-07T07:18:30.119Z,99.90
2019-06-07T07:21:00.980Z,99.90
2019-06-07T07:23:32.110Z,99.90
2019-06-07T07:26:03.008Z,99.90
2019-06-07T07:28:34.239Z,99.90
2019-06-07T07:31:05.513Z,99.90
2019-06-07T07:36:23.290Z,99.90
2019-06-07T07:38:41.369Z,99.90
2019-06-07T07:41:15.530Z,99.90
2019-06-07T07:43:51.839Z,99.90
2019-06-07T07:46:29.075Z,99.90
2019-06-07T07:49:08.783Z,99.90
2019-06-07T07:51:39.729Z,99.90
2019-06-07T07:54:11.392Z,99.90
2019-06-07T07:56:42.580Z,99.90
2019-06-07T07:59:13.474Z,99.90
2019-06-07T08:01:46.109Z,99.90
2019-06-07T08:04:17.482Z,99.90
2019-06-07T08:06:48.964Z,99.90
2019-06-07T08:09:20.589Z,99.90
2019-06-07T08:11:52.929Z,99.90
2019-06-07T08:14:24.010Z,99.90
2019-06-07T08:16:57.897Z,99.90
2019-06-07T08:19:27.684Z,99.90
2019-06-07T08:22:01.676Z,99.90
2019-06-07T08:24:31.154Z,99.90
2019-06-07T08:27:24.773Z,99.90
2019-06-07T08:29:45.035Z,99.90
2019-06-07T08:32:07.294Z,99.90
2019-06-07T08:34:38.475Z,99.90
2019-06-07T08:37:09.573Z,99.90
2019-06-07T08:39:40.581Z,99.90
2019-06-07T08:42:17.917Z,99.90
2019-06-07T08:44:43.924Z,99.90
2019-06-07T08:47:20.462Z,99.90
2019-06-07T08:49:47.554Z,99.90
2019-06-07T08:52:18.561Z,99.90
2019-06-07T08:54:50.476Z,99.90
2019-06-07T08:57:22.314Z,99.90
2019-06-07T08:59:55.706Z,99.90
2019-06-07T09:02:26.082Z,99.90
2019-06-07T09:05:00.001Z,99.90
2019-06-07T09:07:29.604Z,99.90
2019-06-07T09:10:08.273Z,99.90
2019-06-07T09:12:32.927Z,99.90
2019-06-07T09:15:17.849Z,99.90
2019-06-07T09:17:36.319Z,99.90
2019-06-07T09:20:32.696Z,99.90
2019-06-07T09:22:40.684Z,99.90
2019-06-07T09:25:20.769Z,99.90
2019-06-07T09:27:45.199Z,99.90
2019-06-07T09:30:18.931Z,99.90
2019-06-07T09:32:49.748Z,99.90
2019-06-07T09:35:20.914Z,99.90
2019-06-07T09:38:07.808Z,99.90
2019-06-07T09:40:31.218Z,99.90
2019-06-07T09:43:47.583Z,99.90
2019-06-07T09:45:34.434Z,99.90
2019-06-07T09:48:12.416Z,99.90
2019-06-07T09:50:37.791Z,99.90
2019-06-07T09:53:21.076Z,99.90
2019-06-07T09:55:41.495Z,99.30
2019-06-07T10:00:45.247Z,99.90
2019-06-07T10:03:21.935Z,99.90
2019-06-07T10:05:49.646Z,99.90
2019-06-07T10:09:26.267Z,99.90
2019-06-07T10:10:52.983Z,99.90
2019-06-07T10:13:23.654Z,99.90
2019-06-07T10:15:54.335Z,99.90
2019-06-07T10:18:25.029Z,99.90
2019-06-07T10:20:55.719Z,99.90
2019-06-07T10:23:26.454Z,97.70
2019-06-07T10:25:57.057Z,97.60
2019-06-07T10:28:27.845Z,95.50
2019-06-07T10:31:00.020Z,97.10
2019-06-07T10:33:30.791Z,95.80
2019-06-07T10:36:02.482Z,95.60
2019-06-07T10:38:33.304Z,96.30
2019-06-07T10:41:04.754Z,94.80
2019-06-07T10:43:35.683Z,94.60
2019-06-07T10:46:07.649Z,93.90
2019-06-07T10:48:38.744Z,93.40
2019-06-07T10:51:13.684Z,94.40
2019-06-07T10:53:42.343Z,94.20
2019-06-07T10:56:13.453Z,93.20
2019-06-07T10:58:44.545Z,92.20
2019-06-07T11:01:15.899Z,92.20
2019-06-07T11:03:46.699Z,94.70
2019-06-07T11:06:17.663Z,94.50
2019-06-07T11:08:48.349Z,92.20
2019-06-07T11:11:19.184Z,88.00
2019-06-07T11:13:52.438Z,92.20
2019-06-07T11:16:22.504Z,89.60
2019-06-07T11:18:53.383Z,91.80
2019-06-07T11:21:24.093Z,91.80
2019-06-07T11:23:54.924Z,91.70
2019-06-07T11:26:25.830Z,91.20
2019-06-07T11:28:57.159Z,90.40
2019-06-07T11:31:27.930Z,88.50
2019-06-07T11:33:58.948Z,91.70
2019-06-07T11:36:29.880Z,91.20
2019-06-07T11:39:00.753Z,85.10
2019-06-07T11:41:31.825Z,82.80
2019-06-07T11:44:02.723Z,80.50
2019-06-07T11:46:33.638Z,86.30
2019-06-07T11:49:04.564Z,78.60
2019-06-07T11:51:35.454Z,81.40
2019-06-07T11:54:07.786Z,79.50
2019-06-07T11:56:38.869Z,79.30
2019-06-07T11:59:11.090Z,82.90
2019-06-07T12:01:42.219Z,79.90
2019-06-07T12:04:14.019Z,78.70
2019-06-07T12:06:45.464Z,76.50
2019-06-07T12:09:16.851Z,72.90
2019-06-07T12:11:47.719Z,75.10
2019-06-07T12:14:19.349Z,70.50
2019-06-07T12:16:50.352Z,71.80
2019-06-07T12:19:21.219Z,71.30
2019-06-07T12:21:52.216Z,70.00
2019-06-07T12:24:23.133Z,69.80
2019-06-07T12:26:54.075Z,73.30
2019-06-07T12:29:25.219Z,77.20
2019-06-07T12:31:56.084Z,72.90
2019-06-07T12:34:27.009Z,68.60
2019-06-07T12:36:58.064Z,73.30
2019-06-07T12:39:29.206Z,69.80
2019-06-07T12:41:59.982Z,70.50
2019-06-07T12:44:31.149Z,69.80
2019-06-07T12:47:02.048Z,73.40
2019-06-07T12:49:32.894Z,74.10
2019-06-07T12:52:03.785Z,69.60
2019-06-07T12:54:34.905Z,67.80
2019-06-07T12:57:06.009Z,70.30
2019-06-07T12:59:36.929Z,71.40
2019-06-07T13:02:07.743Z,76.10
2019-06-07T13:04:38.548Z,77.60
2019-06-07T13:07:09.614Z,70.80
2019-06-07T13:09:40.424Z,72.00
2019-06-07T13:12:11.229Z,80.50
2019-06-07T13:14:42.024Z,73.40
2019-06-07T13:17:12.909Z,72.10
2019-06-07T13:19:43.842Z,73.10
2019-06-07T13:22:16.130Z,70.80
2019-06-07T13:24:47.169Z,72.40
2019-06-07T13:27:18.350Z,68.70
2019-06-07T13:29:49.397Z,69.40
2019-06-07T13:32:21.465Z,68.80
2019-06-07T13:34:52.624Z,68.50
2019-06-07T13:37:23.528Z,68.80
2019-06-07T13:39:54.560Z,70.50
2019-06-07T13:42:25.765Z,69.40
2019-06-07T13:44:56.554Z,69.40
2019-06-07T13:47:27.659Z,73.50
2019-06-07T13:49:58.641Z,66.90
2019-06-07T13:52:29.629Z,68.40
2019-06-07T13:55:02.370Z,70.90
2019-06-07T13:57:33.182Z,72.20
2019-06-07T14:00:10.286Z,67.00
2019-06-07T14:02:37.520Z,66.40
2019-06-07T14:05:09.658Z,70.40
2019-06-07T14:07:40.637Z,68.50
2019-06-07T14:10:12.174Z,68.70
2019-06-07T14:12:43.010Z,68.30
2019-06-07T14:15:15.596Z,71.10
2019-06-07T14:17:46.359Z,71.80
2019-06-07T14:20:17.542Z,71.30
2019-06-07T14:22:50.072Z,71.00
2019-06-07T14:25:21.012Z,71.00
2019-06-07T14:27:51.888Z,68.00
2019-06-07T14:30:23.919Z,68.80
2019-06-07T14:32:55.115Z,69.80
2019-06-07T14:35:26.701Z,70.50
2019-06-07T14:37:57.683Z,70.30
2019-06-07T14:40:30.036Z,71.90
2019-06-07T14:43:01.298Z,73.00
2019-06-07T14:45:32.761Z,73.70
2019-06-07T14:48:04.679Z,74.60
2019-06-07T14:50:35.534Z,73.80
2019-06-07T14:53:06.979Z,75.10
2019-06-07T14:55:37.900Z,75.50
2019-06-07T14:58:08.749Z,72.60
2019-06-07T15:00:45.416Z,75.40
2019-06-07T15:03:16.409Z,75.30
2019-06-07T15:05:47.169Z,75.20
2019-06-07T15:08:18.278Z,72.20
2019-06-07T15:10:49.469Z,74.00
2019-06-07T15:13:20.318Z,71.70
2019-06-07T15:15:51.219Z,73.10
2019-06-07T15:18:21.901Z,74.50
2019-06-07T15:20:52.594Z,74.50
2019-06-07T15:23:23.429Z,74.40
2019-06-07T15:25:54.199Z,73.60
2019-06-07T15:28:25.169Z,75.80
2019-06-07T15:30:56.034Z,73.70
2019-06-07T15:33:27.880Z,75.20
2019-06-07T15:35:58.689Z,77.40
2019-06-07T15:38:30.952Z,77.80
2019-06-07T15:41:01.723Z,77.40
2019-06-07T15:43:33.153Z,74.80
2019-06-07T15:46:03.889Z,75.10
2019-06-07T15:48:35.712Z,78.20
2019-06-07T15:51:06.769Z,77.00
2019-06-07T15:53:42.654Z,75.40
2019-06-07T15:56:10.039Z,77.10
2019-06-07T15:58:41.356Z,79.00
2019-06-07T16:01:12.385Z,79.70
2019-06-07T16:03:43.224Z,79.30
2019-06-07T16:06:14.259Z,77.10
2019-06-07T16:08:45.046Z,77.80
2019-06-07T16:11:16.005Z,75.70
2019-06-07T16:13:47.269Z,79.20
2019-06-07T16:16:18.144Z,79.70
2019-06-07T16:18:49.165Z,76.70
2019-06-07T16:21:20.309Z,78.50
2019-06-07T16:23:51.064Z,81.40
2019-06-07T16:26:21.849Z,82.00
2019-06-07T16:28:52.666Z,83.50
2019-06-07T16:31:23.439Z,83.90
2019-06-07T16:33:54.299Z,84.40
2019-06-07T16:36:25.279Z,85.00
2019-06-07T16:38:56.065Z,83.70
2019-06-07T16:41:26.884Z,84.50
2019-06-07T16:43:57.954Z,85.60
2019-06-07T16:46:28.684Z,85.90
2019-06-07T16:48:59.446Z,88.00
2019-06-07T16:51:30.524Z,88.00
2019-06-07T16:54:01.408Z,89.10
2019-06-07T16:56:32.430Z,90.00
2019-06-07T16:59:03.300Z,90.20
2019-06-07T17:01:34.174Z,90.00
2019-06-07T17:04:05.420Z,90.50
2019-06-07T17:06:37.508Z,90.70
2019-06-07T17:09:09.414Z,90.90
2019-06-07T17:11:40.644Z,90.10
2019-06-07T17:14:11.724Z,90.60
2019-06-07T17:16:43.201Z,92.50
2019-06-07T17:19:14.479Z,93.90
2019-06-07T17:21:45.395Z,95.30
2019-06-07T17:24:16.389Z,97.90
2019-06-07T17:26:47.827Z,98.40
2019-06-07T17:29:18.859Z,96.80
2019-06-07T17:31:50.386Z,94.60
2019-06-07T17:34:21.609Z,94.80
2019-06-07T17:36:52.524Z,94.50
2019-06-07T17:39:23.524Z,94.70
2019-06-07T17:42:01.741Z,95.00
2019-06-07T17:44:26.924Z,99.90
2019-06-07T17:46:57.738Z,99.90
2019-06-07T17:49:28.493Z,99.90
2019-06-07T17:51:59.303Z,99.90
2019-06-07T17:54:30.159Z,99.90
2019-06-07T17:57:01.209Z,99.90
2019-06-07T17:59:32.424Z,99.90
2019-06-07T18:02:14.404Z,99.90
2019-06-07T18:04:36.384Z,99.90
2019-06-07T18:07:08.258Z,99.90
2019-06-07T18:09:40.425Z,99.90
2019-06-07T18:12:11.326Z,99.90
2019-06-07T18:14:42.260Z,99.90
2019-06-07T18:17:13.435Z,99.90
2019-06-07T18:19:45.270Z,99.90
2019-06-07T18:22:16.298Z,99.90
2019-06-07T18:24:48.432Z,99.90
2019-06-07T18:27:19.359Z,99.90
2019-06-07T18:29:50.558Z,99.90
2019-06-07T18:32:21.639Z,99.90
2019-06-07T18:34:52.963Z,99.90
2019-06-07T18:37:23.779Z,99.90
2019-06-07T18:39:55.277Z,99.90
2019-06-07T18:42:26.269Z,99.90
2019-06-07T18:44:57.143Z,99.90
2019-06-07T18:47:28.303Z,99.90
2019-06-07T18:49:59.484Z,99.90
2019-06-07T18:52:34.030Z,99.90
2019-06-07T18:55:05.083Z,99.90
2019-06-07T18:57:36.003Z,99.90
2019-06-07T19:00:08.679Z,99.90
2019-06-07T19:02:39.569Z,99.90
2019-06-07T19:05:11.080Z,99.90
2019-06-07T19:07:42.413Z,99.90
2019-06-07T19:10:15.394Z,99.90
2019-06-07T19:12:46.410Z,99.90
2019-06-07T19:15:18.349Z,99.90
2019-06-07T19:17:49.734Z,99.90
2019-06-07T19:20:21.765Z,99.90
2019-06-07T19:22:54.125Z,99.90
2019-06-07T19:25:25.622Z,99.90
2019-06-07T19:27:57.009Z,99.90
2019-06-07T19:30:29.549Z,99.90
2019-06-07T19:33:01.515Z,99.90
2019-06-07T19:35:32.924Z,99.90
2019-06-07T19:38:04.234Z,99.90
2019-06-07T19:40:35.459Z,99.90
2019-06-07T19:43:06.569Z,99.90
2019-06-07T19:45:37.740Z,99.90
2019-06-07T19:48:08.809Z,99.90
2019-06-07T19:50:39.724Z,99.90
2019-06-07T19:53:10.622Z,99.90
2019-06-07T19:55:41.559Z,99.90
2019-06-07T19:58:12.469Z,99.90
2019-06-07T20:00:43.764Z,99.90
2019-06-07T20:03:14.609Z,99.90
2019-06-07T20:05:45.540Z,99.90
2019-06-07T20:08:16.664Z,99.90
2019-06-07T20:10:48.046Z,99.90
2019-06-07T20:13:19.272Z,99.90
2019-06-07T20:15:50.644Z,99.90
2019-06-07T20:18:21.478Z,99.90
2019-06-07T20:20:52.483Z,99.90
2019-06-07T20:23:23.459Z,99.90
2019-06-07T20:25:54.374Z,99.90
2019-06-07T20:28:25.484Z,99.90
2019-06-07T20:30:57.645Z,99.90
2019-06-07T20:33:28.759Z,99.90
2019-06-07T20:36:00.717Z,99.90
2019-06-07T20:38:32.252Z,99.90
2019-06-07T20:41:03.364Z,99.90
2019-06-07T20:43:34.293Z,99.90
2019-06-07T20:46:06.602Z,99.90
2019-06-07T20:48:37.854Z,99.90
2019-06-07T20:51:08.828Z,99.90
2019-06-07T20:53:39.454Z,99.90
2019-06-07T20:56:10.142Z,99.90
2019-06-07T20:58:41.224Z,99.90
2019-06-07T21:01:12.530Z,99.90
2019-06-07T21:03:43.264Z,99.90
2019-06-07T21:06:14.501Z,99.90
2019-06-07T21:08:45.314Z,99.90
2019-06-07T21:11:16.483Z,99.90
2019-06-07T21:13:47.679Z,99.90
2019-06-07T21:16:18.464Z,99.90
2019-06-07T21:18:49.333Z,99.90
2019-06-07T21:21:20.554Z,99.90
2019-06-07T21:23:51.508Z,99.90
2019-06-07T21:26:22.599Z,99.90
2019-06-07T21:28:53.774Z,99.90
2019-06-07T21:31:24.834Z,99.90
2019-06-07T21:33:55.730Z,99.90
2019-06-07T21:36:26.869Z,99.90
2019-06-07T21:38:57.783Z,99.90
2019-06-07T21:41:28.769Z,99.90
2019-06-07T21:43:59.624Z,99.90
2019-06-07T21:46:30.574Z,99.90
2019-06-07T21:49:02.208Z,99.90
2019-06-07T21:51:33.404Z,99.90
2019-06-07T21:54:06.762Z,99.90
2019-06-07T21:56:36.664Z,99.90
2019-06-07T21:59:07.655Z,99.90
2019-06-07T22:01:38.835Z,99.90
2019-06-07T22:04:09.713Z,99.90
2019-06-07T22:06:40.764Z,99.90
2019-06-07T22:09:12.401Z,99.90
2019-06-07T22:11:43.407Z,99.90
2019-06-07T22:14:14.570Z,99.90
2019-06-07T22:16:45.519Z,99.90
2019-06-07T22:19:16.269Z,99.90
2019-06-07T22:22:01.768Z,99.90
2019-06-07T22:24:19.444Z,99.90
2019-06-07T22:26:50.260Z,99.90
2019-06-07T22:29:21.270Z,99.90
2019-06-07T22:31:52.046Z,99.90
2019-06-07T22:34:23.135Z,99.90
2019-06-07T22:36:54.303Z,99.90
2019-06-07T22:39:25.120Z,99.90
2019-06-07T22:41:56.037Z,99.90
2019-06-07T22:44:27.489Z,99.90
2019-06-07T22:46:58.373Z,99.90
2019-06-07T22:49:29.251Z,99.90
2019-06-07T22:52:08.739Z,99.90
2019-06-07T22:54:32.754Z,99.90
2019-06-07T22:57:10.082Z,99.90
2019-06-07T22:59:41.084Z,99.90
2019-06-07T23:02:12.632Z,99.90
2019-06-07T23:04:43.634Z,99.90
2019-06-07T23:07:14.973Z,99.90
2019-06-07T23:09:45.684Z,99.90
2019-06-07T23:12:17.528Z,99.90
2019-06-07T23:14:48.728Z,99.90
2019-06-07T23:17:20.748Z,99.90
2019-06-07T23:19:52.013Z,99.90
2019-06-07T23:22:23.136Z,99.90
2019-06-07T23:24:54.149Z,99.90
2019-06-07T23:27:25.063Z,99.90
2019-06-07T23:29:55.923Z,99.90
2019-06-07T23:32:26.749Z,99.90
2019-06-07T23:34:57.594Z,99.90
2019-06-07T23:37:28.468Z,99.90
2019-06-07T23:39:59.390Z,99.90
2019-06-07T23:42:30.258Z,99.90
2019-06-07T23:45:01.159Z,99.90
2019-06-07T23:47:32.130Z,99.90
2019-06-07T23:50:03.133Z,99.90
2019-06-07T23:52:34.079Z,99.90
2019-06-07T23:55:05.129Z,99.90
2019-06-07T23:57:36.793Z,99.90
